sensor_id;sensor_type;location;lat;lon;timestamp;temperature;humidity
1524;DHT22;755;53.658;10.118;2022-07-30T00:05:42;17.20;99.90
1524;DHT22;755;53.658;10.118;2022-07-30T00:15:44;17.20;99.90
1524;DHT22;755;53.658;10.118;2022-07-30T00:25:48;17.20;99.90
1524;DHT22;755;53.658;10.118;2022-07-30T00:35:50;17.20;99.90
1524;DHT22;755;53.658;10.118;2022-07-30T00:45:53;17.10;99.90
1524;DHT22;755;53.658;10.118;2022-07-30T00:55:55;17.10;99.90
1524;DHT22;755;53.658;10.118;2022-07-30T01:05:58;17.10;99.90
1524;DHT22;755;53.658;10.118;2022-07-30T01:16:01;17.10;99.90
1524;DHT22;755;53.658;10.118;2022-07-30T01:26:08;17.00;99.90
1524;DHT22;755;53.658;10.118;2022-07-30T01:36:13;16.90;99.90
1524;DHT22;755;53.658;10.118;2022-07-30T01:46:18;17.00;99.90
1524;DHT22;755;53.658;10.118;2022-07-30T01:56:22;16.90;99.90
1524;DHT22;755;53.658;10.118;2022-07-30T02:06:31;16.70;99.90
1524;DHT22;755;53.658;10.118;2022-07-30T02:16:36;16.50;99.90
1524;DHT22;755;53.658;10.118;2022-07-30T02:26:41;16.50;99.90
1524;DHT22;755;53.658;10.118;2022-07-30T02:36:44;16.50;99.90
1524;DHT22;755;53.658;10.118;2022-07-30T02:46:48;16.30;99.90
1524;DHT22;755;53.658;10.118;2022-07-30T02:56:51;16.40;99.90
1524;DHT22;755;53.658;10.118;2022-07-30T03:06:55;16.50;99.90
1524;DHT22;755;53.658;10.118;2022-07-30T03:16:58;16.50;99.90
1524;DHT22;755;53.658;10.118;2022-07-30T03:27:03;16.50;99.90
1524;DHT22;755;53.658;10.118;2022-07-30T03:37:06;16.20;99.90
1524;DHT22;755;53.658;10.118;2022-07-30T03:47:11;16.30;99.90
1524;DHT22;755;53.658;10.118;2022-07-30T03:57:14;16.20;99.90
1524;DHT22;755;53.658;10.118;2022-07-30T04:07:17;16.00;99.90
1524;DHT22;755;53.658;10.118;2022-07-30T04:17:23;16.00;99.90
1524;DHT22;755;53.658;10.118;2022-07-30T04:27:27;16.10;99.90
1524;DHT22;755;53.658;10.118;2022-07-30T04:37:30;15.90;99.90
1524;DHT22;755;53.658;10.118;2022-07-30T04:47:33;16.00;99.90
1524;DHT22;755;53.658;10.118;2022-07-30T04:57:36;16.00;99.90
1524;DHT22;755;53.658;10.118;2022-07-30T05:07:41;15.90;99.90
1524;DHT22;755;53.658;10.118;2022-07-30T05:17:44;16.00;99.90
1524;DHT22;755;53.658;10.118;2022-07-30T05:27:47;16.10;99.90
1524;DHT22;755;53.658;10.118;2022-07-30T05:37:50;16.20;99.90
1524;DHT22;755;53.658;10.118;2022-07-30T05:47:54;16.30;99.90
1524;DHT22;755;53.658;10.118;2022-07-30T05:57:56;16.60;99.90
1524;DHT22;755;53.658;10.118;2022-07-30T06:07:59;16.80;99.90
1524;DHT22;755;53.658;10.118;2022-07-30T06:18:01;16.90;99.90
1524;DHT22;755;53.658;10.118;2022-07-30T06:28:05;17.10;99.90
1524;DHT22;755;53.658;10.118;2022-07-30T06:38:07;17.50;99.90
1524;DHT22;755;53.658;10.118;2022-07-30T06:48:10;17.70;99.90
1524;DHT22;755;53.658;10.118;2022-07-30T06:58:12;17.90;99.90
1524;DHT22;755;53.658;10.118;2022-07-30T07:08:16;18.00;99.90
1524;DHT22;755;53.658;10.118;2022-07-30T07:18:18;18.00;99.90
1524;DHT22;755;53.658;10.118;2022-07-30T07:28:21;18.20;99.90
1524;DHT22;755;53.658;10.118;2022-07-30T07:38:23;18.30;99.90
1524;DHT22;755;53.658;10.118;2022-07-30T07:48:26;18.80;99.90
1524;DHT22;755;53.658;10.118;2022-07-30T07:58:28;19.20;1.00
1524;DHT22;755;53.658;10.118;2022-07-30T08:08:32;19.50;1.00
1524;DHT22;755;53.658;10.118;2022-07-30T08:18:36;19.80;99.90
1524;DHT22;755;53.658;10.118;2022-07-30T08:28:39;20.40;99.90
1524;DHT22;755;53.658;10.118;2022-07-30T08:38:42;20.70;1.00
1524;DHT22;755;53.658;10.118;2022-07-30T08:48:46;21.10;99.90
1524;DHT22;755;53.658;10.118;2022-07-30T08:58:49;21.90;1.00
1524;DHT22;755;53.658;10.118;2022-07-30T09:08:53;22.00;99.90
1524;DHT22;755;53.658;10.118;2022-07-30T09:18:55;23.00;1.00
1524;DHT22;755;53.658;10.118;2022-07-30T09:39:30;23.70;99.90
1524;DHT22;755;53.658;10.118;2022-07-30T09:49:32;25.50;99.90
1524;DHT22;755;53.658;10.118;2022-07-30T09:59:36;25.90;51.50
1524;DHT22;755;53.658;10.118;2022-07-30T10:09:38;25.30;87.40
1524;DHT22;755;53.658;10.118;2022-07-30T10:19:45;26.10;7.50
1524;DHT22;755;53.658;10.118;2022-07-30T10:29:48;25.50;53.80
1524;DHT22;755;53.658;10.118;2022-07-30T10:39:55;24.80;39.50
1524;DHT22;755;53.658;10.118;2022-07-30T10:50:09;24.50;99.90
1524;DHT22;755;53.658;10.118;2022-07-30T11:00:14;24.10;99.90
1524;DHT22;755;53.658;10.118;2022-07-30T11:10:45;23.90;99.90
1524;DHT22;755;53.658;10.118;2022-07-30T11:21:16;23.20;1.00
1524;DHT22;755;53.658;10.118;2022-07-30T11:31:30;22.80;1.00
1524;DHT22;755;53.658;10.118;2022-07-30T11:41:34;22.10;14.60
1524;DHT22;755;53.658;10.118;2022-07-30T11:51:39;22.30;1.00
1524;DHT22;755;53.658;10.118;2022-07-30T12:01:43;21.80;1.00
1524;DHT22;755;53.658;10.118;2022-07-30T12:11:49;21.80;65.20
1524;DHT22;755;53.658;10.118;2022-07-30T12:21:58;21.80;1.00
1524;DHT22;755;53.658;10.118;2022-07-30T12:32:00;22.10;1.00
1524;DHT22;755;53.658;10.118;2022-07-30T12:42:04;22.20;1.00
1524;DHT22;755;53.658;10.118;2022-07-30T12:52:06;22.50;1.00
1524;DHT22;755;53.658;10.118;2022-07-30T13:02:09;23.00;1.00
1524;DHT22;755;53.658;10.118;2022-07-30T13:12:12;23.60;1.00
1524;DHT22;755;53.658;10.118;2022-07-30T13:22:16;24.30;1.00
1524;DHT22;755;53.658;10.118;2022-07-30T13:32:18;24.40;99.90
1524;DHT22;755;53.658;10.118;2022-07-30T13:42:22;24.10;99.90
1524;DHT22;755;53.658;10.118;2022-07-30T13:52:24;24.30;99.90
1524;DHT22;755;53.658;10.118;2022-07-30T14:02:27;25.20;99.90
1524;DHT22;755;53.658;10.118;2022-07-30T14:12:29;25.10;99.90
1524;DHT22;755;53.658;10.118;2022-07-30T14:22:32;25.30;99.90
1524;DHT22;755;53.658;10.118;2022-07-30T14:32:34;25.60;99.90
1524;DHT22;755;53.658;10.118;2022-07-30T14:42:38;25.30;99.90
1524;DHT22;755;53.658;10.118;2022-07-30T14:52:40;25.10;99.90
1524;DHT22;755;53.658;10.118;2022-07-30T15:02:44;24.70;99.90
1524;DHT22;755;53.658;10.118;2022-07-30T15:12:46;24.50;99.90
1524;DHT22;755;53.658;10.118;2022-07-30T15:22:50;24.50;99.90
1524;DHT22;755;53.658;10.118;2022-07-30T15:32:52;24.30;99.90
1524;DHT22;755;53.658;10.118;2022-07-30T15:42:56;24.10;99.90
1524;DHT22;755;53.658;10.118;2022-07-30T15:52:58;24.20;99.90
1524;DHT22;755;53.658;10.118;2022-07-30T16:03:01;24.70;99.90
1524;DHT22;755;53.658;10.118;2022-07-30T16:13:04;24.30;99.90
1524;DHT22;755;53.658;10.118;2022-07-30T16:23:07;24.30;99.90
1524;DHT22;755;53.658;10.118;2022-07-30T16:33:09;23.90;93.80
1524;DHT22;755;53.658;10.118;2022-07-30T16:43:12;23.80;99.90
1524;DHT22;755;53.658;10.118;2022-07-30T16:53:14;23.60;99.90
1524;DHT22;755;53.658;10.118;2022-07-30T17:03:18;23.60;99.90
1524;DHT22;755;53.658;10.118;2022-07-30T17:13:21;23.40;99.90
1524;DHT22;755;53.658;10.118;2022-07-30T17:23:25;23.30;99.90
1524;DHT22;755;53.658;10.118;2022-07-30T17:33:27;23.40;99.90
1524;DHT22;755;53.658;10.118;2022-07-30T17:43:30;23.20;99.90
1524;DHT22;755;53.658;10.118;2022-07-30T17:53:32;23.10;99.90
1524;DHT22;755;53.658;10.118;2022-07-30T18:03:36;22.80;99.90
1524;DHT22;755;53.658;10.118;2022-07-30T18:13:39;22.50;14.90
1524;DHT22;755;53.658;10.118;2022-07-30T18:23:43;22.20;99.90
1524;DHT22;755;53.658;10.118;2022-07-30T18:33:45;22.10;1.00
1524;DHT22;755;53.658;10.118;2022-07-30T18:43:50;21.90;31.40
1524;DHT22;755;53.658;10.118;2022-07-30T18:53:52;21.90;90.50
1524;DHT22;755;53.658;10.118;2022-07-30T19:03:56;21.90;99.90
1524;DHT22;755;53.658;10.118;2022-07-30T19:13:58;21.80;99.90
1524;DHT22;755;53.658;10.118;2022-07-30T19:24:02;21.60;1.00
1524;DHT22;755;53.658;10.118;2022-07-30T19:34:05;21.40;1.00
1524;DHT22;755;53.658;10.118;2022-07-30T19:44:10;21.10;1.00
1524;DHT22;755;53.658;10.118;2022-07-30T19:54:12;20.90;1.00
1524;DHT22;755;53.658;10.118;2022-07-30T20:04:16;20.70;1.00
1524;DHT22;755;53.658;10.118;2022-07-30T20:14:18;20.60;99.90
1524;DHT22;755;53.658;10.118;2022-07-30T20:24:23;20.30;1.00
1524;DHT22;755;53.658;10.118;2022-07-30T20:34:26;19.90;99.90
1524;DHT22;755;53.658;10.118;2022-07-30T20:44:32;19.70;99.90
1524;DHT22;755;53.658;10.118;2022-07-30T20:54:34;19.70;99.90
1524;DHT22;755;53.658;10.118;2022-07-30T21:04:38;19.60;99.90
1524;DHT22;755;53.658;10.118;2022-07-30T21:14:40;19.50;99.90
1524;DHT22;755;53.658;10.118;2022-07-30T21:24:45;19.10;1.00
1524;DHT22;755;53.658;10.118;2022-07-30T21:34:47;19.20;1.00
1524;DHT22;755;53.658;10.118;2022-07-30T21:44:50;19.00;65.60
1524;DHT22;755;53.658;10.118;2022-07-30T21:54:52;19.00;21.30
1524;DHT22;755;53.658;10.118;2022-07-30T22:04:56;19.00;41.20
1524;DHT22;755;53.658;10.118;2022-07-30T22:14:58;18.80;99.90
1524;DHT22;755;53.658;10.118;2022-07-30T22:25:04;18.70;99.90
1524;DHT22;755;53.658;10.118;2022-07-30T22:35:07;18.60;99.90
1524;DHT22;755;53.658;10.118;2022-07-30T22:45:11;18.50;99.90
1524;DHT22;755;53.658;10.118;2022-07-30T22:55:13;18.50;99.90
1524;DHT22;755;53.658;10.118;2022-07-30T23:05:17;18.40;99.90
1524;DHT22;755;53.658;10.118;2022-07-30T23:15:19;18.50;99.90
1524;DHT22;755;53.658;10.118;2022-07-30T23:25:24;18.40;99.90
1524;DHT22;755;53.658;10.118;2022-07-30T23:35:26;18.30;99.90
1524;DHT22;755;53.658;10.118;2022-07-30T23:45:30;18.20;99.90
1524;DHT22;755;53.658;10.118;2022-07-30T23:55:33;18.10;99.90
